sensor_id;sensor_type;location;lat;lon;timestamp;P1;durP1;ratioP1;P2;durP2;ratioP2
7759;SDS011;3924;48.830;9.262;2023-05-20T00:01:31;1.83;;;1.73;;
7759;SDS011;3924;48.830;9.262;2023-05-20T00:03:58;2.43;;;2.23;;
7759;SDS011;3924;48.830;9.262;2023-05-20T00:06:25;2.17;;;1.97;;
7759;SDS011;3924;48.830;9.262;2023-05-20T00:08:51;4.27;;;2.33;;
7759;SDS011;3924;48.830;9.262;2023-05-20T00:11:18;2.20;;;2.00;;
7759;SDS011;3924;48.830;9.262;2023-05-20T00:13:44;1.93;;;1.83;;
7759;SDS011;3924;48.830;9.262;2023-05-20T00:16:10;4.37;;;2.63;;
7759;SDS011;3924;48.830;9.262;2023-05-20T00:18:37;2.00;;;1.80;;
7759;SDS011;3924;48.830;9.262;2023-05-20T00:21:04;2.90;;;2.33;;
7759;SDS011;3924;48.830;9.262;2023-05-20T00:23:30;2.37;;;2.17;;
7759;SDS011;3924;48.830;9.262;2023-05-20T00:25:56;1.57;;;1.47;;
7759;SDS011;3924;48.830;9.262;2023-05-20T00:28:26;1.90;;;1.80;;
7759;SDS011;3924;48.830;9.262;2023-05-20T00:30:53;1.80;;;1.60;;
7759;SDS011;3924;48.830;9.262;2023-05-20T00:33:19;2.17;;;2.07;;
7759;SDS011;3924;48.830;9.262;2023-05-20T00:35:46;1.60;;;1.60;;
7759;SDS011;3924;48.830;9.262;2023-05-20T00:38:13;3.60;;;2.27;;
7759;SDS011;3924;48.830;9.262;2023-05-20T00:40:39;2.00;;;1.90;;
7759;SDS011;3924;48.830;9.262;2023-05-20T00:43:06;2.27;;;2.17;;
7759;SDS011;3924;48.830;9.262;2023-05-20T00:45:32;2.13;;;1.90;;
7759;SDS011;3924;48.830;9.262;2023-05-20T00:47:59;2.40;;;2.13;;
7759;SDS011;3924;48.830;9.262;2023-05-20T00:50:29;4.17;;;2.27;;
7759;SDS011;3924;48.830;9.262;2023-05-20T00:52:56;3.53;;;2.07;;
7759;SDS011;3924;48.830;9.262;2023-05-20T00:55:24;4.27;;;2.17;;
7759;SDS011;3924;48.830;9.262;2023-05-20T00:57:51;3.10;;;2.60;;
7759;SDS011;3924;48.830;9.262;2023-05-20T01:00:18;3.20;;;2.20;;
7759;SDS011;3924;48.830;9.262;2023-05-20T01:02:44;2.30;;;2.00;;
7759;SDS011;3924;48.830;9.262;2023-05-20T01:05:11;1.60;;;1.50;;
7759;SDS011;3924;48.830;9.262;2023-05-20T01:07:38;2.83;;;1.87;;
7759;SDS011;3924;48.830;9.262;2023-05-20T01:10:05;2.20;;;2.00;;
7759;SDS011;3924;48.830;9.262;2023-05-20T01:12:39;1.23;;;1.23;;
7759;SDS011;3924;48.830;9.262;2023-05-20T01:15:09;4.87;;;1.70;;
7759;SDS011;3924;48.830;9.262;2023-05-20T01:17:47;2.07;;;1.97;;
7759;SDS011;3924;48.830;9.262;2023-05-20T01:20:17;1.87;;;1.77;;
7759;SDS011;3924;48.830;9.262;2023-05-20T01:22:46;2.03;;;1.83;;
7759;SDS011;3924;48.830;9.262;2023-05-20T01:25:13;1.80;;;1.70;;
7759;SDS011;3924;48.830;9.262;2023-05-20T01:27:39;2.13;;;1.97;;
7759;SDS011;3924;48.830;9.262;2023-05-20T01:30:06;2.10;;;2.00;;
7759;SDS011;3924;48.830;9.262;2023-05-20T01:32:35;2.37;;;2.17;;
7759;SDS011;3924;48.830;9.262;2023-05-20T01:35:06;1.70;;;1.60;;
7759;SDS011;3924;48.830;9.262;2023-05-20T01:37:33;2.27;;;2.07;;
7759;SDS011;3924;48.830;9.262;2023-05-20T01:40:04;1.97;;;1.87;;
7759;SDS011;3924;48.830;9.262;2023-05-20T01:42:33;2.13;;;1.77;;
7759;SDS011;3924;48.830;9.262;2023-05-20T01:45:01;1.70;;;1.60;;
7759;SDS011;3924;48.830;9.262;2023-05-20T01:47:28;1.73;;;1.63;;
7759;SDS011;3924;48.830;9.262;2023-05-20T01:49:56;2.70;;;1.80;;
7759;SDS011;3924;48.830;9.262;2023-05-20T01:52:22;1.80;;;1.70;;
7759;SDS011;3924;48.830;9.262;2023-05-20T01:54:49;2.20;;;1.77;;
7759;SDS011;3924;48.830;9.262;2023-05-20T01:57:19;2.40;;;2.20;;
7759;SDS011;3924;48.830;9.262;2023-05-20T01:59:46;1.73;;;1.60;;
7759;SDS011;3924;48.830;9.262;2023-05-20T02:02:13;1.87;;;1.77;;
7759;SDS011;3924;48.830;9.262;2023-05-20T02:04:41;1.83;;;1.73;;
7759;SDS011;3924;48.830;9.262;2023-05-20T02:07:11;2.03;;;1.90;;
7759;SDS011;3924;48.830;9.262;2023-05-20T02:09:37;1.67;;;1.57;;
7759;SDS011;3924;48.830;9.262;2023-05-20T02:12:04;1.30;;;1.30;;
7759;SDS011;3924;48.830;9.262;2023-05-20T02:14:30;1.73;;;1.63;;
7759;SDS011;3924;48.830;9.262;2023-05-20T02:16:57;1.80;;;1.70;;
7759;SDS011;3924;48.830;9.262;2023-05-20T02:19:23;1.70;;;1.60;;
7759;SDS011;3924;48.830;9.262;2023-05-20T02:21:50;2.60;;;1.80;;
7759;SDS011;3924;48.830;9.262;2023-05-20T02:24:16;2.00;;;1.50;;
7759;SDS011;3924;48.830;9.262;2023-05-20T02:26:44;2.27;;;1.70;;
7759;SDS011;3924;48.830;9.262;2023-05-20T02:29:11;2.57;;;1.93;;
7759;SDS011;3924;48.830;9.262;2023-05-20T02:31:38;1.97;;;1.80;;
7759;SDS011;3924;48.830;9.262;2023-05-20T02:34:04;1.70;;;1.60;;
7759;SDS011;3924;48.830;9.262;2023-05-20T02:36:31;1.67;;;1.57;;
7759;SDS011;3924;48.830;9.262;2023-05-20T02:38:57;3.90;;;1.90;;
7759;SDS011;3924;48.830;9.262;2023-05-20T02:41:26;2.70;;;2.50;;
7759;SDS011;3924;48.830;9.262;2023-05-20T02:43:52;1.57;;;1.47;;
7759;SDS011;3924;48.830;9.262;2023-05-20T02:46:19;1.40;;;1.40;;
7759;SDS011;3924;48.830;9.262;2023-05-20T02:48:46;1.77;;;1.67;;
7759;SDS011;3924;48.830;9.262;2023-05-20T02:51:12;1.77;;;1.67;;
7759;SDS011;3924;48.830;9.262;2023-05-20T02:53:39;1.80;;;1.50;;
7759;SDS011;3924;48.830;9.262;2023-05-20T02:56:05;1.80;;;1.60;;
7759;SDS011;3924;48.830;9.262;2023-05-20T02:58:33;5.43;;;1.80;;
7759;SDS011;3924;48.830;9.262;2023-05-20T03:01:01;2.00;;;1.90;;
7759;SDS011;3924;48.830;9.262;2023-05-20T03:03:27;1.47;;;1.40;;
7759;SDS011;3924;48.830;9.262;2023-05-20T03:05:54;1.87;;;1.70;;
7759;SDS011;3924;48.830;9.262;2023-05-20T03:08:21;2.17;;;1.50;;
7759;SDS011;3924;48.830;9.262;2023-05-20T03:10:48;1.10;;;1.10;;
7759;SDS011;3924;48.830;9.262;2023-05-20T03:13:15;1.37;;;1.27;;
7759;SDS011;3924;48.830;9.262;2023-05-20T03:15:42;1.50;;;1.40;;
7759;SDS011;3924;48.830;9.262;2023-05-20T03:18:12;1.70;;;1.60;;
7759;SDS011;3924;48.830;9.262;2023-05-20T03:20:38;1.83;;;1.73;;
7759;SDS011;3924;48.830;9.262;2023-05-20T03:23:07;2.07;;;1.97;;
7759;SDS011;3924;48.830;9.262;2023-05-20T03:25:33;3.23;;;2.77;;
7759;SDS011;3924;48.830;9.262;2023-05-20T03:28:01;2.40;;;2.30;;
7759;SDS011;3924;48.830;9.262;2023-05-20T03:30:29;2.40;;;2.20;;
7759;SDS011;3924;48.830;9.262;2023-05-20T03:32:55;2.30;;;1.67;;
7759;SDS011;3924;48.830;9.262;2023-05-20T03:35:23;1.93;;;1.73;;
7759;SDS011;3924;48.830;9.262;2023-05-20T03:37:50;1.63;;;1.50;;
7759;SDS011;3924;48.830;9.262;2023-05-20T03:40:18;1.10;;;1.10;;
7759;SDS011;3924;48.830;9.262;2023-05-20T03:42:46;2.27;;;2.00;;
7759;SDS011;3924;48.830;9.262;2023-05-20T03:45:12;1.70;;;1.60;;
7759;SDS011;3924;48.830;9.262;2023-05-20T03:47:39;1.70;;;1.60;;
7759;SDS011;3924;48.830;9.262;2023-05-20T03:50:05;2.13;;;1.90;;
7759;SDS011;3924;48.830;9.262;2023-05-20T03:52:32;1.90;;;1.80;;
7759;SDS011;3924;48.830;9.262;2023-05-20T03:54:59;1.73;;;1.63;;
7759;SDS011;3924;48.830;9.262;2023-05-20T03:57:26;1.53;;;1.43;;
7759;SDS011;3924;48.830;9.262;2023-05-20T03:59:54;1.90;;;1.80;;
7759;SDS011;3924;48.830;9.262;2023-05-20T04:02:22;1.57;;;1.47;;
7759;SDS011;3924;48.830;9.262;2023-05-20T04:04:48;1.33;;;1.33;;
7759;SDS011;3924;48.830;9.262;2023-05-20T04:07:18;1.63;;;1.53;;
7759;SDS011;3924;48.830;9.262;2023-05-20T04:09:44;1.70;;;1.60;;
7759;SDS011;3924;48.830;9.262;2023-05-20T04:12:11;1.87;;;1.60;;
7759;SDS011;3924;48.830;9.262;2023-05-20T04:14:39;1.57;;;1.47;;
7759;SDS011;3924;48.830;9.262;2023-05-20T04:17:07;1.60;;;1.50;;
7759;SDS011;3924;48.830;9.262;2023-05-20T04:19:35;1.50;;;1.40;;
7759;SDS011;3924;48.830;9.262;2023-05-20T04:22:03;2.70;;;2.50;;
7759;SDS011;3924;48.830;9.262;2023-05-20T04:24:30;3.13;;;2.60;;
7759;SDS011;3924;48.830;9.262;2023-05-20T04:26:56;1.80;;;1.70;;
7759;SDS011;3924;48.830;9.262;2023-05-20T04:29:23;2.07;;;1.63;;
7759;SDS011;3924;48.830;9.262;2023-05-20T04:31:50;1.60;;;1.50;;
7759;SDS011;3924;48.830;9.262;2023-05-20T04:34:17;1.73;;;1.60;;
7759;SDS011;3924;48.830;9.262;2023-05-20T04:36:45;1.63;;;1.53;;
7759;SDS011;3924;48.830;9.262;2023-05-20T04:39:12;1.43;;;1.33;;
7759;SDS011;3924;48.830;9.262;2023-05-20T04:41:39;1.93;;;1.73;;
7759;SDS011;3924;48.830;9.262;2023-05-20T04:44:05;1.57;;;1.47;;
7759;SDS011;3924;48.830;9.262;2023-05-20T04:46:32;4.20;;;1.87;;
7759;SDS011;3924;48.830;9.262;2023-05-20T04:48:59;1.37;;;1.27;;
7759;SDS011;3924;48.830;9.262;2023-05-20T04:51:25;1.53;;;1.43;;
7759;SDS011;3924;48.830;9.262;2023-05-20T04:53:52;4.87;;;2.00;;
7759;SDS011;3924;48.830;9.262;2023-05-20T04:56:18;3.07;;;1.80;;
7759;SDS011;3924;48.830;9.262;2023-05-20T04:58:45;1.50;;;1.23;;
7759;SDS011;3924;48.830;9.262;2023-05-20T05:01:12;2.00;;;1.90;;
7759;SDS011;3924;48.830;9.262;2023-05-20T05:03:38;1.60;;;1.50;;
7759;SDS011;3924;48.830;9.262;2023-05-20T05:06:05;1.87;;;1.77;;
7759;SDS011;3924;48.830;9.262;2023-05-20T05:08:31;1.43;;;1.33;;
7759;SDS011;3924;48.830;9.262;2023-05-20T05:10:58;1.77;;;1.67;;
7759;SDS011;3924;48.830;9.262;2023-05-20T05:13:24;2.40;;;1.60;;
7759;SDS011;3924;48.830;9.262;2023-05-20T05:16:00;1.83;;;1.73;;
7759;SDS011;3924;48.830;9.262;2023-05-20T05:18:28;2.33;;;1.67;;
7759;SDS011;3924;48.830;9.262;2023-05-20T05:20:58;1.80;;;1.70;;
7759;SDS011;3924;48.830;9.262;2023-05-20T05:23:28;1.43;;;1.30;;
7759;SDS011;3924;48.830;9.262;2023-05-20T05:25:55;2.37;;;2.00;;
7759;SDS011;3924;48.830;9.262;2023-05-20T05:28:22;1.90;;;1.80;;
7759;SDS011;3924;48.830;9.262;2023-05-20T05:30:49;1.23;;;1.23;;
7759;SDS011;3924;48.830;9.262;2023-05-20T05:33:16;1.37;;;1.27;;
7759;SDS011;3924;48.830;9.262;2023-05-20T05:35:42;1.63;;;1.53;;
7759;SDS011;3924;48.830;9.262;2023-05-20T05:38:09;1.47;;;1.43;;
7759;SDS011;3924;48.830;9.262;2023-05-20T05:40:36;2.27;;;1.97;;
7759;SDS011;3924;48.830;9.262;2023-05-20T05:43:02;2.07;;;1.53;;
7759;SDS011;3924;48.830;9.262;2023-05-20T05:45:29;2.60;;;1.60;;
7759;SDS011;3924;48.830;9.262;2023-05-20T05:47:56;1.60;;;1.50;;
7759;SDS011;3924;48.830;9.262;2023-05-20T05:50:22;1.97;;;1.63;;
7759;SDS011;3924;48.830;9.262;2023-05-20T05:52:49;1.97;;;1.60;;
7759;SDS011;3924;48.830;9.262;2023-05-20T05:55:18;1.53;;;1.47;;
7759;SDS011;3924;48.830;9.262;2023-05-20T05:57:45;2.00;;;1.90;;
7759;SDS011;3924;48.830;9.262;2023-05-20T06:00:12;1.70;;;1.60;;
7759;SDS011;3924;48.830;9.262;2023-05-20T06:02:38;1.70;;;1.60;;
7759;SDS011;3924;48.830;9.262;2023-05-20T06:05:05;2.17;;;1.97;;
7759;SDS011;3924;48.830;9.262;2023-05-20T06:07:32;1.70;;;1.60;;
7759;SDS011;3924;48.830;9.262;2023-05-20T06:10:00;1.63;;;1.53;;
7759;SDS011;3924;48.830;9.262;2023-05-20T06:12:27;2.33;;;2.17;;
7759;SDS011;3924;48.830;9.262;2023-05-20T06:14:53;2.17;;;2.00;;
7759;SDS011;3924;48.830;9.262;2023-05-20T06:17:19;2.83;;;2.30;;
7759;SDS011;3924;48.830;9.262;2023-05-20T06:19:46;2.07;;;1.90;;
7759;SDS011;3924;48.830;9.262;2023-05-20T06:22:12;2.30;;;1.77;;
7759;SDS011;3924;48.830;9.262;2023-05-20T06:24:39;1.60;;;1.50;;
7759;SDS011;3924;48.830;9.262;2023-05-20T06:27:05;1.50;;;1.40;;
7759;SDS011;3924;48.830;9.262;2023-05-20T06:29:32;1.77;;;1.67;;
7759;SDS011;3924;48.830;9.262;2023-05-20T06:31:58;2.37;;;2.20;;
7759;SDS011;3924;48.830;9.262;2023-05-20T06:34:25;2.30;;;2.10;;
7759;SDS011;3924;48.830;9.262;2023-05-20T06:36:52;2.10;;;2.00;;
7759;SDS011;3924;48.830;9.262;2023-05-20T06:39:18;2.70;;;1.87;;
7759;SDS011;3924;48.830;9.262;2023-05-20T06:41:45;1.80;;;1.70;;
7759;SDS011;3924;48.830;9.262;2023-05-20T06:44:12;1.60;;;1.50;;
7759;SDS011;3924;48.830;9.262;2023-05-20T06:46:38;1.93;;;1.73;;
7759;SDS011;3924;48.830;9.262;2023-05-20T06:49:05;2.30;;;2.13;;
7759;SDS011;3924;48.830;9.262;2023-05-20T06:51:31;3.50;;;1.90;;
7759;SDS011;3924;48.830;9.262;2023-05-20T06:53:58;2.10;;;1.90;;
7759;SDS011;3924;48.830;9.262;2023-05-20T06:56:24;1.20;;;1.20;;
7759;SDS011;3924;48.830;9.262;2023-05-20T06:58:51;1.80;;;1.40;;
7759;SDS011;3924;48.830;9.262;2023-05-20T07:01:17;1.80;;;1.70;;
7759;SDS011;3924;48.830;9.262;2023-05-20T07:03:44;1.87;;;1.77;;
7759;SDS011;3924;48.830;9.262;2023-05-20T07:06:11;1.87;;;1.77;;
7759;SDS011;3924;48.830;9.262;2023-05-20T07:08:37;1.80;;;1.63;;
7759;SDS011;3924;48.830;9.262;2023-05-20T07:11:04;2.00;;;1.67;;
7759;SDS011;3924;48.830;9.262;2023-05-20T07:13:31;2.03;;;1.83;;
7759;SDS011;3924;48.830;9.262;2023-05-20T07:15:57;2.43;;;2.07;;
7759;SDS011;3924;48.830;9.262;2023-05-20T07:18:24;1.57;;;1.47;;
7759;SDS011;3924;48.830;9.262;2023-05-20T07:20:51;1.97;;;1.80;;
7759;SDS011;3924;48.830;9.262;2023-05-20T07:23:18;2.23;;;2.07;;
7759;SDS011;3924;48.830;9.262;2023-05-20T07:25:44;2.03;;;1.77;;
7759;SDS011;3924;48.830;9.262;2023-05-20T07:28:11;2.37;;;2.17;;
7759;SDS011;3924;48.830;9.262;2023-05-20T07:30:37;1.80;;;1.70;;
7759;SDS011;3924;48.830;9.262;2023-05-20T07:33:04;2.00;;;1.73;;
7759;SDS011;3924;48.830;9.262;2023-05-20T07:35:30;2.87;;;1.67;;
7759;SDS011;3924;48.830;9.262;2023-05-20T07:37:58;1.90;;;1.80;;
7759;SDS011;3924;48.830;9.262;2023-05-20T07:40:24;1.93;;;1.77;;
7759;SDS011;3924;48.830;9.262;2023-05-20T07:42:51;2.00;;;1.90;;
7759;SDS011;3924;48.830;9.262;2023-05-20T07:45:17;3.00;;;2.40;;
7759;SDS011;3924;48.830;9.262;2023-05-20T07:47:44;5.70;;;2.13;;
7759;SDS011;3924;48.830;9.262;2023-05-20T07:50:10;5.33;;;1.93;;
7759;SDS011;3924;48.830;9.262;2023-05-20T07:52:36;1.87;;;1.77;;
7759;SDS011;3924;48.830;9.262;2023-05-20T07:55:20;2.17;;;1.80;;
7759;SDS011;3924;48.830;9.262;2023-05-20T07:57:47;1.83;;;1.73;;
7759;SDS011;3924;48.830;9.262;2023-05-20T08:00:13;2.00;;;1.90;;
7759;SDS011;3924;48.830;9.262;2023-05-20T08:02:40;1.77;;;1.67;;
7759;SDS011;3924;48.830;9.262;2023-05-20T08:05:07;2.30;;;2.20;;
7759;SDS011;3924;48.830;9.262;2023-05-20T08:07:33;2.07;;;1.87;;
7759;SDS011;3924;48.830;9.262;2023-05-20T08:10:00;1.77;;;1.67;;
7759;SDS011;3924;48.830;9.262;2023-05-20T08:12:26;1.73;;;1.63;;
7759;SDS011;3924;48.830;9.262;2023-05-20T08:14:53;2.60;;;2.33;;
7759;SDS011;3924;48.830;9.262;2023-05-20T08:17:19;1.97;;;1.87;;
7759;SDS011;3924;48.830;9.262;2023-05-20T08:19:46;1.63;;;1.53;;
7759;SDS011;3924;48.830;9.262;2023-05-20T08:22:12;2.53;;;2.37;;
7759;SDS011;3924;48.830;9.262;2023-05-20T08:24:39;1.57;;;1.47;;
7759;SDS011;3924;48.830;9.262;2023-05-20T08:27:06;2.03;;;1.93;;
7759;SDS011;3924;48.830;9.262;2023-05-20T08:29:32;2.50;;;2.30;;
7759;SDS011;3924;48.830;9.262;2023-05-20T08:31:59;2.53;;;2.33;;
7759;SDS011;3924;48.830;9.262;2023-05-20T08:34:25;5.00;;;2.10;;
7759;SDS011;3924;48.830;9.262;2023-05-20T08:36:52;4.43;;;1.73;;
7759;SDS011;3924;48.830;9.262;2023-05-20T08:39:18;1.27;;;1.27;;
7759;SDS011;3924;48.830;9.262;2023-05-20T08:41:45;2.17;;;1.97;;
7759;SDS011;3924;48.830;9.262;2023-05-20T08:44:13;1.90;;;1.80;;
7759;SDS011;3924;48.830;9.262;2023-05-20T08:46:39;2.03;;;1.93;;
7759;SDS011;3924;48.830;9.262;2023-05-20T08:49:07;1.53;;;1.47;;
7759;SDS011;3924;48.830;9.262;2023-05-20T08:51:33;2.40;;;2.20;;
7759;SDS011;3924;48.830;9.262;2023-05-20T08:54:02;1.77;;;1.63;;
7759;SDS011;3924;48.830;9.262;2023-05-20T08:56:29;2.40;;;2.03;;
7759;SDS011;3924;48.830;9.262;2023-05-20T08:58:57;2.37;;;2.07;;
7759;SDS011;3924;48.830;9.262;2023-05-20T09:01:24;1.83;;;1.73;;
7759;SDS011;3924;48.830;9.262;2023-05-20T09:03:51;3.80;;;2.30;;
7759;SDS011;3924;48.830;9.262;2023-05-20T09:06:18;2.37;;;2.17;;
7759;SDS011;3924;48.830;9.262;2023-05-20T09:08:47;4.17;;;2.57;;
7759;SDS011;3924;48.830;9.262;2023-05-20T09:11:16;2.03;;;1.77;;
7759;SDS011;3924;48.830;9.262;2023-05-20T09:13:42;3.13;;;2.30;;
7759;SDS011;3924;48.830;9.262;2023-05-20T09:16:09;2.00;;;1.90;;
7759;SDS011;3924;48.830;9.262;2023-05-20T09:18:39;2.43;;;2.30;;
7759;SDS011;3924;48.830;9.262;2023-05-20T09:21:06;2.30;;;2.20;;
7759;SDS011;3924;48.830;9.262;2023-05-20T09:23:35;2.13;;;1.63;;
7759;SDS011;3924;48.830;9.262;2023-05-20T09:26:03;2.00;;;1.90;;
7759;SDS011;3924;48.830;9.262;2023-05-20T09:28:30;2.67;;;2.47;;
7759;SDS011;3924;48.830;9.262;2023-05-20T09:30:59;2.07;;;1.97;;
7759;SDS011;3924;48.830;9.262;2023-05-20T09:33:27;4.60;;;1.93;;
7759;SDS011;3924;48.830;9.262;2023-05-20T09:36:07;2.50;;;2.30;;
7759;SDS011;3924;48.830;9.262;2023-05-20T09:38:37;1.87;;;1.77;;
7759;SDS011;3924;48.830;9.262;2023-05-20T09:41:06;2.47;;;2.27;;
7759;SDS011;3924;48.830;9.262;2023-05-20T09:43:39;2.07;;;1.87;;
7759;SDS011;3924;48.830;9.262;2023-05-20T09:46:06;4.00;;;2.10;;
7759;SDS011;3924;48.830;9.262;2023-05-20T09:48:36;2.10;;;1.90;;
7759;SDS011;3924;48.830;9.262;2023-05-20T09:51:04;2.00;;;1.90;;
7759;SDS011;3924;48.830;9.262;2023-05-20T09:53:32;2.50;;;2.30;;
7759;SDS011;3924;48.830;9.262;2023-05-20T09:55:59;4.10;;;2.47;;
7759;SDS011;3924;48.830;9.262;2023-05-20T09:58:25;2.97;;;2.00;;
7759;SDS011;3924;48.830;9.262;2023-05-20T10:00:52;2.33;;;2.00;;
7759;SDS011;3924;48.830;9.262;2023-05-20T10:03:20;1.83;;;1.50;;
7759;SDS011;3924;48.830;9.262;2023-05-20T10:20:10;2.33;;;2.13;;
7759;SDS011;3924;48.830;9.262;2023-05-20T10:22:39;2.07;;;1.83;;
7759;SDS011;3924;48.830;9.262;2023-05-20T10:25:08;1.93;;;1.77;;
7759;SDS011;3924;48.830;9.262;2023-05-20T10:27:42;2.07;;;1.93;;
7759;SDS011;3924;48.830;9.262;2023-05-20T10:30:17;1.80;;;1.70;;
7759;SDS011;3924;48.830;9.262;2023-05-20T10:32:54;1.97;;;1.53;;
7759;SDS011;3924;48.830;9.262;2023-05-20T10:35:26;1.40;;;1.40;;
7759;SDS011;3924;48.830;9.262;2023-05-20T10:37:53;1.90;;;1.73;;
7759;SDS011;3924;48.830;9.262;2023-05-20T10:40:31;2.63;;;2.20;;
7759;SDS011;3924;48.830;9.262;2023-05-20T10:43:07;2.33;;;1.60;;
7759;SDS011;3924;48.830;9.262;2023-05-20T10:45:46;1.30;;;1.20;;
7759;SDS011;3924;48.830;9.262;2023-05-20T10:50:58;1.40;;;1.30;;
7759;SDS011;3924;48.830;9.262;2023-05-20T10:53:37;2.17;;;1.97;;
7759;SDS011;3924;48.830;9.262;2023-05-20T10:56:04;1.83;;;1.73;;
7759;SDS011;3924;48.830;9.262;2023-05-20T10:58:35;1.50;;;1.40;;
7759;SDS011;3924;48.830;9.262;2023-05-20T11:01:03;1.80;;;1.70;;
7759;SDS011;3924;48.830;9.262;2023-05-20T11:03:30;1.50;;;1.40;;
7759;SDS011;3924;48.830;9.262;2023-05-20T11:06:00;1.70;;;1.60;;
7759;SDS011;3924;48.830;9.262;2023-05-20T11:08:27;1.57;;;1.47;;
7759;SDS011;3924;48.830;9.262;2023-05-20T11:10:56;2.27;;;2.07;;
7759;SDS011;3924;48.830;9.262;2023-05-20T11:13:23;2.50;;;2.30;;
7759;SDS011;3924;48.830;9.262;2023-05-20T11:15:51;5.07;;;1.63;;
7759;SDS011;3924;48.830;9.262;2023-05-20T11:18:17;2.67;;;1.43;;
7759;SDS011;3924;48.830;9.262;2023-05-20T11:20:45;1.37;;;1.27;;
7759;SDS011;3924;48.830;9.262;2023-05-20T11:23:12;4.70;;;1.90;;
7759;SDS011;3924;48.830;9.262;2023-05-20T11:25:40;2.07;;;1.90;;
7759;SDS011;3924;48.830;9.262;2023-05-20T11:28:08;1.83;;;1.70;;
7759;SDS011;3924;48.830;9.262;2023-05-20T11:30:39;2.70;;;2.00;;
7759;SDS011;3924;48.830;9.262;2023-05-20T11:33:10;2.53;;;1.60;;
7759;SDS011;3924;48.830;9.262;2023-05-20T11:35:42;1.87;;;1.77;;
7759;SDS011;3924;48.830;9.262;2023-05-20T11:38:19;1.73;;;1.63;;
7759;SDS011;3924;48.830;9.262;2023-05-20T11:40:50;1.73;;;1.53;;
7759;SDS011;3924;48.830;9.262;2023-05-20T11:43:19;7.30;;;1.57;;
7759;SDS011;3924;48.830;9.262;2023-05-20T11:45:46;2.37;;;2.17;;
7759;SDS011;3924;48.830;9.262;2023-05-20T11:48:18;1.77;;;1.67;;
7759;SDS011;3924;48.830;9.262;2023-05-20T11:50:45;1.73;;;1.63;;
7759;SDS011;3924;48.830;9.262;2023-05-20T11:53:16;2.20;;;1.70;;
7759;SDS011;3924;48.830;9.262;2023-05-20T11:55:47;6.57;;;2.00;;
7759;SDS011;3924;48.830;9.262;2023-05-20T11:58:18;1.37;;;1.27;;
7759;SDS011;3924;48.830;9.262;2023-05-20T12:00:46;1.80;;;1.70;;
7759;SDS011;3924;48.830;9.262;2023-05-20T12:03:22;1.80;;;1.57;;
7759;SDS011;3924;48.830;9.262;2023-05-20T12:05:49;1.95;;;1.77;;
7759;SDS011;3924;48.830;9.262;2023-05-20T12:08:16;2.13;;;1.83;;
7759;SDS011;3924;48.830;9.262;2023-05-20T12:10:43;1.80;;;1.70;;
7759;SDS011;3924;48.830;9.262;2023-05-20T12:13:10;2.30;;;1.73;;
7759;SDS011;3924;48.830;9.262;2023-05-20T12:15:39;3.00;;;1.93;;
7759;SDS011;3924;48.830;9.262;2023-05-20T12:18:06;2.60;;;1.77;;
7759;SDS011;3924;48.830;9.262;2023-05-20T12:20:33;2.10;;;2.00;;
7759;SDS011;3924;48.830;9.262;2023-05-20T12:23:00;2.90;;;1.87;;
7759;SDS011;3924;48.830;9.262;2023-05-20T12:25:27;2.30;;;2.10;;
7759;SDS011;3924;48.830;9.262;2023-05-20T12:28:00;3.13;;;2.10;;
7759;SDS011;3924;48.830;9.262;2023-05-20T12:30:29;1.33;;;1.33;;
7759;SDS011;3924;48.830;9.262;2023-05-20T12:32:56;1.43;;;1.20;;
7759;SDS011;3924;48.830;9.262;2023-05-20T12:35:36;2.13;;;1.50;;
7759;SDS011;3924;48.830;9.262;2023-05-20T12:38:04;1.57;;;1.40;;
7759;SDS011;3924;48.830;9.262;2023-05-20T12:40:32;2.07;;;1.97;;
7759;SDS011;3924;48.830;9.262;2023-05-20T12:43:00;1.83;;;1.73;;
7759;SDS011;3924;48.830;9.262;2023-05-20T12:45:27;1.73;;;1.63;;
7759;SDS011;3924;48.830;9.262;2023-05-20T12:47:54;2.07;;;1.97;;
7759;SDS011;3924;48.830;9.262;2023-05-20T12:50:22;3.97;;;1.87;;
7759;SDS011;3924;48.830;9.262;2023-05-20T12:52:49;1.37;;;1.33;;
7759;SDS011;3924;48.830;9.262;2023-05-20T12:55:16;1.30;;;1.30;;
7759;SDS011;3924;48.830;9.262;2023-05-20T12:57:43;1.93;;;1.77;;
7759;SDS011;3924;48.830;9.262;2023-05-20T13:00:11;1.90;;;1.67;;
7759;SDS011;3924;48.830;9.262;2023-05-20T13:02:39;2.10;;;2.00;;
7759;SDS011;3924;48.830;9.262;2023-05-20T13:05:07;1.77;;;1.67;;
7759;SDS011;3924;48.830;9.262;2023-05-20T13:07:35;1.77;;;1.67;;
7759;SDS011;3924;48.830;9.262;2023-05-20T13:10:02;1.30;;;1.30;;
7759;SDS011;3924;48.830;9.262;2023-05-20T13:12:29;1.60;;;1.50;;
7759;SDS011;3924;48.830;9.262;2023-05-20T13:14:56;1.57;;;1.50;;
7759;SDS011;3924;48.830;9.262;2023-05-20T13:17:22;1.83;;;1.50;;
7759;SDS011;3924;48.830;9.262;2023-05-20T13:19:49;1.93;;;1.57;;
7759;SDS011;3924;48.830;9.262;2023-05-20T13:22:16;1.37;;;1.33;;
7759;SDS011;3924;48.830;9.262;2023-05-20T13:24:42;1.40;;;1.20;;
7759;SDS011;3924;48.830;9.262;2023-05-20T13:27:09;2.00;;;1.30;;
7759;SDS011;3924;48.830;9.262;2023-05-20T13:29:36;2.80;;;1.60;;
7759;SDS011;3924;48.830;9.262;2023-05-20T13:32:02;1.43;;;1.33;;
7759;SDS011;3924;48.830;9.262;2023-05-20T13:34:29;4.13;;;1.93;;
7759;SDS011;3924;48.830;9.262;2023-05-20T13:36:58;4.10;;;1.83;;
7759;SDS011;3924;48.830;9.262;2023-05-20T13:39:24;1.60;;;1.50;;
7759;SDS011;3924;48.830;9.262;2023-05-20T13:41:51;1.73;;;1.30;;
7759;SDS011;3924;48.830;9.262;2023-05-20T13:44:20;1.67;;;1.57;;
7759;SDS011;3924;48.830;9.262;2023-05-20T13:46:46;4.28;;;2.00;;
7759;SDS011;3924;48.830;9.262;2023-05-20T13:49:13;1.97;;;1.77;;
7759;SDS011;3924;48.830;9.262;2023-05-20T13:51:39;3.97;;;1.57;;
7759;SDS011;3924;48.830;9.262;2023-05-20T13:54:06;1.73;;;1.63;;
7759;SDS011;3924;48.830;9.262;2023-05-20T13:56:32;3.67;;;1.77;;
7759;SDS011;3924;48.830;9.262;2023-05-20T13:58:59;1.55;;;1.45;;
7759;SDS011;3924;48.830;9.262;2023-05-20T14:01:27;1.30;;;1.20;;
7759;SDS011;3924;48.830;9.262;2023-05-20T14:03:55;29.73;;;10.83;;
7759;SDS011;3924;48.830;9.262;2023-05-20T14:06:22;14.40;;;5.20;;
7759;SDS011;3924;48.830;9.262;2023-05-20T14:08:52;11.33;;;2.60;;
7759;SDS011;3924;48.830;9.262;2023-05-20T14:11:24;4.83;;;1.40;;
7759;SDS011;3924;48.830;9.262;2023-05-20T14:13:50;1.30;;;1.20;;
7759;SDS011;3924;48.830;9.262;2023-05-20T14:16:17;1.87;;;1.30;;
7759;SDS011;3924;48.830;9.262;2023-05-20T14:18:43;2.57;;;1.93;;
7759;SDS011;3924;48.830;9.262;2023-05-20T14:21:10;1.60;;;1.50;;
7759;SDS011;3924;48.830;9.262;2023-05-20T14:23:37;1.43;;;1.27;;
7759;SDS011;3924;48.830;9.262;2023-05-20T14:26:06;1.40;;;1.30;;
7759;SDS011;3924;48.830;9.262;2023-05-20T14:28:32;1.40;;;1.30;;
7759;SDS011;3924;48.830;9.262;2023-05-20T14:30:59;1.60;;;1.50;;
7759;SDS011;3924;48.830;9.262;2023-05-20T14:33:25;1.37;;;1.33;;
7759;SDS011;3924;48.830;9.262;2023-05-20T14:35:52;1.50;;;1.40;;
7759;SDS011;3924;48.830;9.262;2023-05-20T14:38:18;1.47;;;1.20;;
7759;SDS011;3924;48.830;9.262;2023-05-20T14:40:46;1.10;;;1.10;;
7759;SDS011;3924;48.830;9.262;2023-05-20T14:43:13;1.33;;;1.23;;
7759;SDS011;3924;48.830;9.262;2023-05-20T14:45:40;84.53;;;6.80;;
7759;SDS011;3924;48.830;9.262;2023-05-20T14:48:06;92.07;;;7.07;;
7759;SDS011;3924;48.830;9.262;2023-05-20T14:50:33;66.45;;;6.07;;
7759;SDS011;3924;48.830;9.262;2023-05-20T14:53:00;15.00;;;2.65;;
7759;SDS011;3924;48.830;9.262;2023-05-20T14:55:27;2.08;;;1.88;;
7759;SDS011;3924;48.830;9.262;2023-05-20T14:57:54;3.03;;;1.50;;
7759;SDS011;3924;48.830;9.262;2023-05-20T15:00:21;3.80;;;3.20;;
7759;SDS011;3924;48.830;9.262;2023-05-20T15:02:47;4.30;;;1.70;;
7759;SDS011;3924;48.830;9.262;2023-05-20T15:05:14;2.63;;;1.57;;
7759;SDS011;3924;48.830;9.262;2023-05-20T15:07:40;1.60;;;1.50;;
7759;SDS011;3924;48.830;9.262;2023-05-20T15:10:07;1.57;;;1.47;;
7759;SDS011;3924;48.830;9.262;2023-05-20T15:12:34;1.70;;;1.60;;
7759;SDS011;3924;48.830;9.262;2023-05-20T15:15:00;1.63;;;1.53;;
7759;SDS011;3924;48.830;9.262;2023-05-20T15:17:27;1.70;;;1.60;;
7759;SDS011;3924;48.830;9.262;2023-05-20T15:19:54;4.53;;;1.53;;
7759;SDS011;3924;48.830;9.262;2023-05-20T15:22:21;5.57;;;1.87;;
7759;SDS011;3924;48.830;9.262;2023-05-20T15:24:48;2.27;;;1.50;;
7759;SDS011;3924;48.830;9.262;2023-05-20T15:27:14;1.87;;;1.70;;
7759;SDS011;3924;48.830;9.262;2023-05-20T15:29:41;1.70;;;1.60;;
7759;SDS011;3924;48.830;9.262;2023-05-20T15:32:07;1.40;;;1.30;;
7759;SDS011;3924;48.830;9.262;2023-05-20T15:34:34;1.80;;;1.70;;